• Join FlightAware (Why Join?)
  • Login
  • US Flag 
08:50PM EDT


 

Airport Tracker/Info


-or-


 

Live Flight TrackerFlight Track Log ✈ EMD21 ✈ 01-Dec-2013 ✈ KRKR - KRVS

Flight Track Log - Related Links

Times and Time Zones

All times are in EST time to prevent confusion due to time zone crossing. See the EMD21 flight status page for this flight to view local times or setup timezone preferences in your user account.

Time Position Orientation Groundspeed Altitude Reporting Facility
EST Latitude Longitude Course Direction KTS MPH feet Rate Location/Type
03:24PM 35.0169 -94.6981 302° West 140 161 8,000  Level Memphis Center
03:25PM 35.0550 -94.7153 340° North 121 139 5,300 -660 Descending Memphis Center
03:26PM 35.0897 -94.7444 326° Northwest 145 167 6,700 1,320 Climbing Memphis Center
03:27PM 35.1317 -94.7747 329° Northwest 146 168 8,100 660 Climbing Memphis Center
03:28PM 35.1781 -94.8114 327° Northwest 188 216 8,100  Level Memphis Center
03:28PM 35.1978 -94.8256 330° Northwest 199 229 8,100  Level Memphis Center
03:29PM 35.2494 -94.9215 302° West  Level Estimated
03:29PM 35.2489 -94.8617 330° Northwest 209 241 8,100  Level Memphis Center
03:30PM 35.2992 -94.9006 328° Northwest 212 244 8,100  Level Memphis Center
03:31PM 35.3494 -94.9397 328° Northwest 213 245 8,100  Level Memphis Center
03:32PM 35.3986 -94.9775 328° Northwest 210 242 8,100  Level Memphis Center
03:33PM 35.4583 -95.0231 328° Northwest 210 242 8,100  Level Memphis Center
03:34PM 35.5089 -95.0600 329° Northwest 210 242 8,100  Level Memphis Center
03:35PM 35.5589 -95.0983 328° Northwest 211 243 8,100  Level Memphis Center
03:36PM 35.6081 -95.1367 328° Northwest 209 241 8,100  Level Memphis Center
03:37PM 35.6489 -95.1675 328° Northwest 213 245 8,100  Level Kansas City Center
03:38PM 35.6997 -95.2069 328° Northwest 213 245 8,100  Level Kansas City Center
03:40PM 35.7997 -95.2847 328° Northwest 212 244 8,100  Level Fort Worth Center
03:41PM 35.8531 -95.3381 321° Northwest 214 246 8,100 -240 Level Kansas City Center
03:42PM 35.8414 -95.4086 258° West 212 244 7,700 -480 Descending Kansas City Center
03:43PM 35.8394 -95.4197 258° West 216 249 7,600 -1,080 Descending Kansas City Center
03:44PM 35.8292 -95.4817 258° West 216 249 6,600 -1,020 Descending Kansas City Center
03:45PM 35.8186 -95.5511 259° West 210 242 5,700 -960 Descending Kansas City Center
03:45PM 35.8147 -95.5650 251° West 205 236 5,500 -1,140 Descending Kansas City Center
03:46PM 35.8072 -95.6219 261° West 209 241 4,600 -1,140 Descending Kansas City Center
03:46PM 35.8036 -95.6308 243° Southwest 211 243 4,500 -480 Descending Kansas City Center
03:47PM 35.7953 -95.6919 260° West 209 241 4,100 -240 Descending Kansas City Center
03:48PM 35.7858 -95.7575 260° West 202 232 4,100  Level Kansas City Center
03:48PM 35.7844 -95.7725 263° West 187 215 4,100  Level Kansas City Center
03:49PM 35.7769 -95.8211 259° West 191 220 4,100  Level Kansas City Center
03:49PM 35.7736 -95.8383 257° West 193 222 4,100  Level Kansas City Center
03:50PM 35.7636 -95.9011 259° West 196 226 4,100  Level Kansas City Center
03:51PM 35.7800 -95.9636 288° West 203 234 4,100  Level Kansas City Center
03:51PM 35.7806 -95.9628 51° Northeast 203 234 4,100 -720 Level Kansas City Center
03:52PM 35.8078 -96.0192 301° West 190 219 3,400 -720 Descending Kansas City Center
03:52PM 35.8106 -96.0208 334° Northwest 198 228 3,400 -540 Level Kansas City Center
03:53PM 35.8603 -96.0433 340° North 212 244 2,900 -480 Descending Kansas City Center
03:53PM 35.8636 -96.0406 34° Northeast 206 237 2,900  Level Kansas City Center
03:54PM 35.9233 -96.0200 16° North 202 232 2,900  Level Kansas City Center
03:54PM 35.9178 -96.0192 173° South 201 231 2,900 -840 Level Kansas City Center
03:55PM 35.9656 -96.0061 12° North 190 219 2,000 -840 Descending Kansas City Center
03:56PM 36.0031 -95.9967 12° North 132 152 1,300 -840 Descending Kansas City Center
03:56PM 36.0108 -95.9936 18° North 155 178 1,200 -180 Descending Kansas City Center
03:57PM 36.0475 -95.9833 13° North 152 175 1,100 -120 Descending Kansas City Center